Time;durP1;ratioP1;P1;durP2;ratioP2;P2;SDS_P1;SDS_P2;PMS_P1;PMS_P2;Temp;Humidity;BMP_temperature;BMP_pressure;BME280_temperature;BME280_humidity;BME280_pressure;Samples;Min_cycle;Max_cycle;Signal;HPM_P1;HPM_P2
2021/08/17 00:01:20;;;;;;;1.02;0.80;;;19.50;48.30;;;;;;4131594;28;20123;-51
2021/08/17 00:03:23;;;;;;;2.50;1.10;;;19.80;48.50;;;;;;4132017;28;20041;-51
2021/08/17 00:05:25;;;;;;;2.15;1.05;;;20.10;47.30;;;;;;4126838;28;20168;-54
2021/08/17 00:07:27;;;;;;;1.33;1.10;;;20.40;46.80;;;;;;4117258;28;20046;-51
2021/08/17 00:09:31;;;;;;;1.58;1.10;;;20.60;46.40;;;;;;4118002;28;21463;-47
2021/08/17 00:11:33;;;;;;;2.63;1.48;;;;;;;;;;4114446;28;20078;-51
2021/08/17 00:13:35;;;;;;;4.32;1.35;;;20.90;46.20;;;;;;4113769;28;20500;-54
2021/08/17 00:15:37;;;;;;;6.18;1.60;;;;;;;;;;4114232;28;20058;-59
2021/08/17 00:17:40;;;;;;;2.25;1.45;;;;;;;;;;4116072;28;20648;-58
2021/08/17 00:19:45;;;;;;;3.53;2.17;;;;;;;;;;4115682;28;20026;-57
2021/08/17 00:21:47;;;;;;;4.18;1.88;;;;;;;;;;4115329;28;20030;-55
2021/08/17 00:23:50;;;;;;;3.85;2.40;;;;;;;;;;4114002;28;20452;-52
2021/08/17 00:25:52;;;;;;;5.43;2.35;;;;;;;;;;4116451;28;20030;-56
2021/08/17 00:27:54;;;;;;;3.58;2.58;;;;;;;;;;4115344;28;20034;-55
2021/08/17 00:29:56;;;;;;;12.98;3.17;;;;;;;;;;4115704;28;20049;-48
2021/08/17 00:31:58;;;;;;;7.78;3.72;;;;;;;;;;4113759;28;20053;-53
2021/08/17 00:34:00;;;;;;;11.82;4.55;;;;;;;;;;4109990;28;20514;-50
2021/08/17 00:36:04;;;;;;;6.55;4.05;;;;;;;;;;4112547;28;21203;-48
2021/08/17 00:38:07;;;;;;;10.55;4.40;;;;;;;;;;4109698;28;20026;-49
2021/08/17 00:40:09;;;;;;;11.98;4.90;;;;;;;;;;4109259;28;20121;-50
2021/08/17 00:42:11;;;;;;;11.60;4.93;;;;;;;;;;4112455;28;20046;-53
2021/08/17 00:44:28;;;;;;;7.78;5.43;;;;;;;;;;4110125;28;20045;-46
2021/08/17 00:46:31;;;;;;;8.18;4.93;;;21.40;45.60;;;;;;4110533;28;20038;-52
2021/08/17 00:48:37;;;;;;;10.57;6.13;;;22.60;43.50;;;;;;4113783;28;20042;-51
2021/08/17 00:50:40;;;;;;;9.60;6.00;;;22.40;44.30;;;;;;4110148;28;20829;-49
2021/08/17 00:52:42;;;;;;;8.30;6.00;;;22.30;44.60;;;;;;4116465;28;20550;-46
2021/08/17 00:54:45;;;;;;;8.98;6.65;;;22.10;44.70;;;;;;4116582;28;20045;-45
2021/08/17 00:56:48;;;;;;;8.57;6.65;;;22.00;45.00;;;;;;4117636;28;20045;-46
2021/08/17 00:58:50;;;;;;;9.15;6.93;;;;;;;;;;4114545;28;20038;-49
2021/08/17 01:00:52;;;;;;;13.85;6.72;;;;;;;;;;4119975;28;20038;-47
2021/08/17 01:02:55;;;;;;;9.70;7.25;;;;;;;;;;4116983;28;20029;-48
2021/08/17 01:04:57;;;;;;;10.05;7.60;;;;;;;;;;4116925;28;20196;-47
2021/08/17 01:07:03;;;;;;;9.63;8.32;;;21.90;45.10;;;;;;4135380;28;20045;-49
2021/08/17 01:09:06;;;;;;;10.38;8.40;;;21.50;45.70;;;;;;4138698;28;20037;-49
2021/08/17 01:11:08;;;;;;;11.45;8.32;;;21.40;45.90;;;;;;4137123;28;20087;-51
2021/08/17 01:13:10;;;;;;;10.57;9.48;;;;;;;;;;4136108;28;20040;-48
2021/08/17 01:15:14;;;;;;;9.90;8.82;;;;;;;;;;4137476;28;20049;-50
2021/08/17 01:17:19;;;;;;;11.30;9.43;;;;;;;;;;4135900;28;20116;-47
2021/08/17 01:19:22;;;;;;;11.20;10.10;;;;;;;;;;4139287;28;20425;-51
2021/08/17 01:21:24;;;;;;;11.30;9.65;;;;;;;;;;4139006;28;20984;-48
2021/08/17 01:23:27;;;;;;;12.43;10.73;;;;;;;;;;4139382;28;20029;-48
2021/08/17 01:25:34;;;;;;;11.57;10.38;;;;;;;;;;4139167;28;20043;-47
2021/08/17 01:27:36;;;;;;;11.68;10.23;;;;;;;;;;4136165;28;20061;-51
2021/08/17 01:29:39;;;;;;;12.10;10.77;;;;;;;;;;4139139;28;20455;-51
2021/08/17 01:31:41;;;;;;;13.43;11.17;;;21.40;46.00;;;;;;4132797;28;20874;-46
2021/08/17 01:33:43;;;;;;;11.70;10.25;;;21.00;46.10;;;;;;4136189;28;21144;-47
2021/08/17 01:35:45;;;;;;;12.32;10.35;;;21.00;46.60;;;;;;4140019;28;20389;-46
2021/08/17 01:37:47;;;;;;;11.90;10.40;;;20.90;46.70;;;;;;4140778;28;20740;-46
2021/08/17 01:40:04;;;;;;;12.85;11.48;;;20.90;46.80;;;;;;4136591;28;20033;-49
2021/08/17 01:42:06;;;;;;;13.63;11.23;;;20.90;46.80;;;;;;4135696;28;20102;-51
2021/08/17 01:44:15;;;;;;;14.30;11.52;;;20.80;46.80;;;;;;4136801;28;20103;-55
2021/08/17 01:46:18;;;;;;;12.68;11.35;;;20.80;46.90;;;;;;4141109;28;20026;-47
2021/08/17 01:48:20;;;;;;;14.82;10.60;;;20.80;46.80;;;;;;4146140;28;20083;-46
2021/08/17 01:50:24;;;;;;;12.63;11.32;;;20.80;47.00;;;;;;4144237;28;20044;-46
2021/08/17 01:52:26;;;;;;;13.00;11.60;;;20.80;47.00;;;;;;4146901;28;20021;-51
2021/08/17 01:54:28;;;;;;;13.70;11.55;;;20.70;47.00;;;;;;4146748;28;20135;-46
2021/08/17 01:56:30;;;;;;;13.85;11.63;;;20.70;47.00;;;;;;4146071;28;20067;-51
2021/08/17 01:58:32;;;;;;;14.18;12.48;;;20.70;47.20;;;;;;4146987;28;20028;-49
2021/08/17 02:00:34;;;;;;;13.30;11.90;;;20.70;47.20;;;;;;4140604;28;20683;-47
2021/08/17 02:02:37;;;;;;;13.63;12.30;;;20.70;47.20;;;;;;4136107;28;20037;-48
2021/08/17 02:04:39;;;;;;;13.63;12.23;;;20.60;47.20;;;;;;4139301;28;20147;-52
2021/08/17 02:06:41;;;;;;;14.88;13.27;;;20.60;48.30;;;;;;4118439;28;20837;-52
2021/08/17 02:08:43;;;;;;;14.73;13.10;;;20.60;47.90;;;;;;4114818;28;20030;-50
2021/08/17 02:10:45;;;;;;;13.98;12.50;;;20.60;47.90;;;;;;4113707;28;20053;-49
2021/08/17 02:12:47;;;;;;;16.80;14.07;;;20.60;48.10;;;;;;4116562;28;20037;-49
2021/08/17 02:14:49;;;;;;;13.77;12.38;;;20.60;48.30;;;;;;4112659;28;20505;-50
2021/08/17 02:16:51;;;;;;;18.88;14.50;;;20.60;48.50;;;;;;4111041;28;20099;-50
2021/08/17 02:18:53;;;;;;;16.00;13.85;;;20.60;48.10;;;;;;4113080;28;20034;-51
2021/08/17 02:20:56;;;;;;;15.57;13.43;;;20.60;48.40;;;;;;4110052;28;20026;-52
2021/08/17 02:22:58;;;;;;;20.05;13.23;;;20.60;48.40;;;;;;4113327;28;20038;-51
2021/08/17 02:25:01;;;;;;;15.80;14.05;;;20.60;49.20;;;;;;4114098;28;20041;-49
2021/08/17 02:27:03;;;;;;;15.82;14.07;;;20.60;48.30;;;;;;4115207;28;20048;-54
2021/08/17 02:29:05;;;;;;;15.55;13.45;;;20.60;48.40;;;;;;4114348;28;20511;-54
2021/08/17 02:31:07;;;;;;;16.27;12.45;;;20.50;48.50;;;;;;4113788;28;21069;-51
2021/08/17 02:33:09;;;;;;;16.17;13.15;;;20.60;48.50;;;;;;4113543;28;20884;-54
2021/08/17 02:35:11;;;;;;;13.95;12.43;;;20.50;48.50;;;;;;4112874;28;20037;-48
2021/08/17 02:37:13;;;;;;;15.48;13.13;;;20.60;48.60;;;;;;4113829;28;20374;-50
2021/08/17 02:39:16;;;;;;;15.25;12.93;;;20.50;48.50;;;;;;4114658;28;20145;-49
2021/08/17 02:41:18;;;;;;;17.13;13.18;;;20.60;48.50;;;;;;4114803;28;20380;-52
2021/08/17 02:43:24;;;;;;;13.77;11.70;;;20.60;48.60;;;;;;4115053;28;20105;-50
2021/08/17 02:45:26;;;;;;;14.48;12.70;;;20.60;48.60;;;;;;4113561;28;20076;-49
2021/08/17 02:47:29;;;;;;;15.40;13.23;;;20.60;47.90;;;;;;4114373;28;20061;-52
2021/08/17 02:49:32;;;;;;;14.52;11.95;;;20.60;48.50;;;;;;4114062;28;20042;-50
2021/08/17 02:51:35;;;;;;;13.68;11.88;;;20.60;48.50;;;;;;4113480;28;20033;-52
2021/08/17 02:53:37;;;;;;;12.57;11.27;;;20.60;48.50;;;;;;4113727;28;20034;-49
2021/08/17 02:55:39;;;;;;;12.00;10.77;;;20.60;48.50;;;;;;4117161;28;20598;-51
2021/08/17 02:58:09;;;;;;;15.98;11.88;;;20.60;48.50;;;;;;4113793;28;20094;-52
2021/08/17 03:00:11;;;;;;;12.25;10.43;;;20.60;48.50;;;;;;4113209;28;20522;-49
2021/08/17 03:02:13;;;;;;;13.95;11.60;;;20.60;48.50;;;;;;4115969;28;20492;-51
2021/08/17 03:04:15;;;;;;;13.77;10.65;;;20.60;48.40;;;;;;4109029;28;20914;-49
2021/08/17 03:06:17;;;;;;;12.40;10.88;;;20.60;48.40;;;;;;4114434;28;20077;-52
2021/08/17 03:08:19;;;;;;;10.88;9.60;;;20.60;48.40;;;;;;4112130;28;20022;-52
2021/08/17 03:10:23;;;;;;;12.48;9.77;;;20.60;48.30;;;;;;4109349;28;20786;-51
2021/08/17 03:12:25;;;;;;;12.27;9.70;;;20.60;48.30;;;;;;4111961;28;20038;-51
2021/08/17 03:14:27;;;;;;;10.95;8.80;;;20.60;48.30;;;;;;4115291;28;20066;-53
2021/08/17 03:16:30;;;;;;;15.55;8.85;;;20.60;48.20;;;;;;4114725;28;20171;-54
2021/08/17 03:18:32;;;;;;;11.32;10.10;;;20.60;48.20;;;;;;4115996;28;21057;-50
2021/08/17 03:20:36;;;;;;;10.88;8.60;;;20.60;48.30;;;;;;4114835;28;20467;-49
2021/08/17 03:22:38;;;;;;;9.57;8.35;;;20.60;48.20;;;;;;4114440;28;20400;-54
2021/08/17 03:24:40;;;;;;;11.45;8.45;;;20.60;48.20;;;;;;4113535;28;20129;-50
2021/08/17 03:26:43;;;;;;;9.65;8.30;;;20.70;48.20;;;;;;4114332;28;20034;-48
2021/08/17 03:28:45;;;;;;;9.13;8.00;;;20.70;48.40;;;;;;4116922;28;20026;-49
2021/08/17 03:30:47;;;;;;;8.80;7.82;;;20.70;48.10;;;;;;4115311;28;20493;-52
2021/08/17 03:32:49;;;;;;;10.07;9.00;;;20.70;48.10;;;;;;4113406;28;20026;-50
2021/08/17 03:34:53;;;;;;;9.63;7.97;;;20.80;48.10;;;;;;4113722;28;20037;-50
2021/08/17 03:36:55;;;;;;;10.45;8.25;;;20.80;48.20;;;;;;4112353;28;20023;-50
2021/08/17 03:38:57;;;;;;;9.60;7.63;;;20.80;48.10;;;;;;4112949;28;20095;-50
2021/08/17 03:41:00;;;;;;;9.95;8.40;;;20.80;48.00;;;;;;4116966;28;20036;-52
2021/08/17 03:43:02;;;;;;;10.17;8.00;;;20.80;47.90;;;;;;4116216;28;20030;-54
2021/08/17 03:45:05;;;;;;;9.75;7.80;;;20.90;47.90;;;;;;4114888;28;20697;-50
2021/08/17 03:47:07;;;;;;;9.85;8.05;;;20.90;47.90;;;;;;4113394;28;20687;-48
2021/08/17 03:49:09;;;;;;;7.95;7.15;;;20.90;47.80;;;;;;4111983;28;20038;-49
2021/08/17 03:51:11;;;;;;;8.32;7.45;;;21.00;47.80;;;;;;4113698;28;20042;-50
2021/08/17 03:53:13;;;;;;;9.63;7.60;;;21.00;47.70;;;;;;4114801;28;20057;-54
2021/08/17 03:55:16;;;;;;;10.25;8.00;;;21.00;47.70;;;;;;4116553;28;20038;-51
2021/08/17 03:57:18;;;;;;;9.23;8.05;;;21.00;47.60;;;;;;4113150;28;20076;-55
2021/08/17 03:59:20;;;;;;;9.65;7.65;;;21.10;47.60;;;;;;4111660;28;20543;-54
2021/08/17 04:01:22;;;;;;;9.80;7.93;;;21.10;47.50;;;;;;4111398;28;20186;-48
2021/08/17 04:03:24;;;;;;;9.82;8.43;;;21.10;47.40;;;;;;4112812;28;20351;-49
2021/08/17 04:05:27;;;;;;;9.15;8.15;;;21.20;47.40;;;;;;4109876;28;20034;-50
2021/08/17 04:07:29;;;;;;;8.85;7.88;;;21.20;47.30;;;;;;4112898;28;20068;-49
2021/08/17 04:09:31;;;;;;;9.63;8.40;;;21.20;47.20;;;;;;4087058;28;20038;-51
2021/08/17 04:11:33;;;;;;;9.00;7.60;;;21.30;47.20;;;;;;4112920;28;20026;-49
2021/08/17 04:13:37;;;;;;;9.38;8.13;;;21.30;47.90;;;;;;4111196;28;20036;-50
2021/08/17 04:15:39;;;;;;;9.45;7.80;;;21.30;47.20;;;;;;4110764;28;20046;-50
2021/08/17 04:17:42;;;;;;;8.63;7.70;;;21.40;47.20;;;;;;4114047;28;20019;-50
2021/08/17 04:19:44;;;;;;;9.85;7.32;;;21.40;47.10;;;;;;4113409;28;20377;-51
2021/08/17 04:21:46;;;;;;;10.55;8.35;;;21.40;47.00;;;;;;4113503;28;20056;-48
2021/08/17 04:23:49;;;;;;;10.55;7.70;;;21.50;47.00;;;;;;4113759;28;20058;-50
2021/08/17 04:25:51;;;;;;;10.05;8.55;;;21.50;47.00;;;;;;4113131;28;20022;-50
2021/08/17 04:27:53;;;;;;;8.98;7.60;;;21.60;46.90;;;;;;4119063;28;20042;-51
2021/08/17 04:29:55;;;;;;;10.98;8.55;;;21.70;46.90;;;;;;4117145;28;20030;-53
2021/08/17 04:31:57;;;;;;;8.27;7.35;;;21.70;46.80;;;;;;4116676;28;20369;-50
2021/08/17 04:34:00;;;;;;;8.95;7.45;;;21.80;46.90;;;;;;4115656;28;20094;-50
2021/08/17 04:36:02;;;;;;;8.82;7.93;;;21.80;46.80;;;;;;4119139;28;20494;-51
2021/08/17 04:38:04;;;;;;;8.77;7.65;;;21.80;46.60;;;;;;4117909;28;20026;-51
2021/08/17 04:40:07;;;;;;;9.48;7.32;;;21.90;46.50;;;;;;4116195;28;20034;-51
2021/08/17 04:42:09;;;;;;;8.55;7.47;;;22.00;46.50;;;;;;4119302;28;20121;-56
2021/08/17 04:44:12;;;;;;;9.43;6.80;;;22.00;46.30;;;;;;4121502;28;20704;-50
2021/08/17 04:46:14;;;;;;;9.52;7.30;;;22.10;47.00;;;;;;4119368;28;20494;-53
2021/08/17 04:48:16;;;;;;;9.38;7.80;;;22.10;46.20;;;;;;4119271;28;20033;-48
2021/08/17 04:50:20;;;;;;;8.63;7.60;;;22.20;46.30;;;;;;4115575;28;20034;-51
2021/08/17 04:52:23;;;;;;;8.25;6.95;;;22.20;46.30;;;;;;4118385;28;20038;-53
2021/08/17 04:54:25;;;;;;;7.65;6.82;;;22.20;46.00;;;;;;4110418;28;20077;-52
2021/08/17 04:56:27;;;;;;;8.02;7.05;;;22.30;46.00;;;;;;4117837;28;20135;-52
2021/08/17 04:58:29;;;;;;;7.47;6.60;;;22.30;45.60;;;;;;4118262;28;20136;-55
2021/08/17 05:00:31;;;;;;;7.95;6.25;;;22.40;45.90;;;;;;4117120;28;20031;-51
2021/08/17 05:02:34;;;;;;;7.95;6.93;;;22.50;45.30;;;;;;4116562;28;20441;-51
2021/08/17 05:04:36;;;;;;;8.23;6.85;;;22.50;45.70;;;;;;4115426;28;20033;-49
2021/08/17 05:06:38;;;;;;;8.60;7.07;;;22.50;45.60;;;;;;4115359;28;20475;-49
2021/08/17 05:08:40;;;;;;;8.63;6.85;;;22.60;45.40;;;;;;4113520;28;20531;-54
2021/08/17 05:10:42;;;;;;;7.15;6.45;;;22.60;45.40;;;;;;4111217;28;20408;-50
2021/08/17 05:12:45;;;;;;;7.53;6.20;;;22.70;45.50;;;;;;4113378;28;21102;-53
2021/08/17 05:14:47;;;;;;;7.73;5.73;;;22.70;45.40;;;;;;4115664;28;20030;-51
2021/08/17 05:16:51;;;;;;;7.18;6.30;;;22.70;45.40;;;;;;4114304;28;20099;-52
2021/08/17 05:18:53;;;;;;;8.00;5.80;;;22.70;45.30;;;;;;4111509;28;20042;-53
2021/08/17 05:20:55;;;;;;;7.10;6.40;;;22.80;45.30;;;;;;4112446;28;20716;-50
2021/08/17 05:22:58;;;;;;;7.55;6.30;;;22.90;45.20;;;;;;4114507;28;20109;-55
2021/08/17 05:25:00;;;;;;;7.22;5.85;;;22.90;45.00;;;;;;4113762;28;20040;-52
2021/08/17 05:27:02;;;;;;;6.57;5.82;;;22.90;45.00;;;;;;4114132;28;20030;-49
2021/08/17 05:29:04;;;;;;;6.60;5.60;;;22.90;45.00;;;;;;4117964;28;20466;-49
2021/08/17 05:31:07;;;;;;;7.85;6.07;;;22.90;44.90;;;;;;4114975;28;20026;-47
2021/08/17 05:33:09;;;;;;;7.97;5.45;;;22.90;44.30;;;;;;4115653;28;21196;-52
2021/08/17 05:35:11;;;;;;;6.13;5.40;;;22.90;43.90;;;;;;4106388;28;20138;-50
2021/08/17 05:37:16;;;;;;;6.07;5.22;;;22.90;44.30;;;;;;4113718;28;20038;-48
2021/08/17 05:39:19;;;;;;;6.68;5.05;;;22.80;44.50;;;;;;4114381;28;20360;-52
2021/08/17 05:41:21;;;;;;;8.07;4.80;;;22.80;44.20;;;;;;4114321;28;20034;-48
2021/08/17 05:43:23;;;;;;;6.40;4.80;;;22.80;44.40;;;;;;4114550;28;21191;-49
2021/08/17 05:45:25;;;;;;;6.35;4.93;;;22.70;44.60;;;;;;4116092;28;20075;-49
2021/08/17 05:47:27;;;;;;;5.38;4.50;;;22.70;44.60;;;;;;4116446;28;20038;-50
2021/08/17 05:49:29;;;;;;;7.20;5.47;;;22.70;44.70;;;;;;4115908;28;20054;-51
2021/08/17 05:51:31;;;;;;;7.00;5.00;;;22.70;45.00;;;;;;4114984;28;21187;-49
2021/08/17 05:53:33;;;;;;;4.95;4.00;;;22.70;44.70;;;;;;4118974;28;20037;-55
2021/08/17 05:55:35;;;;;;;4.50;3.10;;;22.70;43.10;;;;;;4111628;28;20118;-54
2021/08/17 05:57:38;;;;;;;4.20;3.25;;;22.60;41.70;;;;;;4115600;28;20408;-49
2021/08/17 05:59:40;;;;;;;4.60;3.13;;;22.50;41.50;;;;;;4115534;28;20068;-50
2021/08/17 06:01:42;;;;;;;5.25;3.35;;;22.50;42.30;;;;;;4113416;28;20037;-49
2021/08/17 06:03:44;;;;;;;4.63;3.20;;;22.40;42.10;;;;;;4115330;28;20030;-49
2021/08/17 06:05:46;;;;;;;3.63;2.65;;;22.40;42.60;;;;;;4117770;28;20124;-50
2021/08/17 06:07:50;;;;;;;4.95;3.03;;;22.30;42.90;;;;;;4115573;28;20534;-47
2021/08/17 06:09:52;;;;;;;5.05;3.28;;;22.30;43.00;;;;;;4115723;28;20387;-47
2021/08/17 06:11:57;;;;;;;4.18;3.10;;;22.40;43.50;;;;;;4114738;28;20097;-50
2021/08/17 06:13:59;;;;;;;4.00;2.95;;;22.40;43.10;;;;;;4114589;28;20096;-47
2021/08/17 06:16:01;;;;;;;4.13;3.20;;;22.40;43.80;;;;;;4117144;28;20045;-52
2021/08/17 06:18:05;;;;;;;4.63;3.03;;;22.40;43.90;;;;;;4115115;28;20265;-48
2021/08/17 06:20:07;;;;;;;;;;;22.40;44.00;;;;;;4115329;28;20041;-49
2021/08/17 06:22:09;;;;;;;4.63;2.90;;;22.50;44.20;;;;;;4112969;28;19937;-54
2021/08/17 06:24:11;;;;;;;4.03;2.70;;;22.50;44.10;;;;;;4111095;28;20036;-49
2021/08/17 06:26:13;;;;;;;5.05;3.10;;;22.50;44.00;;;;;;4113677;28;20426;-50
2021/08/17 06:28:15;;;;;;;3.80;2.63;;;22.50;44.00;;;;;;4114465;28;20440;-48
2021/08/17 06:30:17;;;;;;;3.70;2.80;;;22.50;44.20;;;;;;4111932;28;20563;-55
2021/08/17 06:32:20;;;;;;;5.53;2.65;;;22.40;44.20;;;;;;4116336;28;20126;-57
2021/08/17 06:34:22;;;;;;;3.85;2.53;;;22.40;43.70;;;;;;4118035;28;20152;-56
2021/08/17 06:36:25;;;;;;;5.40;2.90;;;22.40;43.90;;;;;;4114601;28;20034;-56
2021/08/17 06:38:27;;;;;;;4.85;2.63;;;22.40;43.70;;;;;;4113329;28;20308;-56
2021/08/17 06:40:29;;;;;;;4.18;2.50;;;22.40;43.90;;;;;;4113835;28;20093;-55
2021/08/17 06:42:31;;;;;;;3.50;2.40;;;22.30;44.10;;;;;;4112931;28;20037;-51
2021/08/17 06:44:33;;;;;;;3.30;2.30;;;22.30;44.50;;;;;;4113712;28;20566;-50
2021/08/17 06:46:35;;;;;;;3.22;2.35;;;22.20;44.50;;;;;;4109126;28;20038;-48
2021/08/17 06:48:44;;;;;;;3.05;2.20;;;22.20;44.60;;;;;;4109240;28;20041;-48
2021/08/17 06:50:46;;;;;;;3.47;2.47;;;22.20;44.70;;;;;;4113869;28;20065;-49
2021/08/17 06:52:49;;;;;;;4.32;2.10;;;22.10;44.70;;;;;;4116228;28;20522;-48
2021/08/17 06:54:51;;;;;;;3.70;2.42;;;22.10;44.70;;;;;;4114137;28;20206;-49
2021/08/17 06:56:53;;;;;;;3.80;2.47;;;22.10;44.80;;;;;;4114062;28;20590;-50
2021/08/17 06:58:55;;;;;;;3.20;2.05;;;22.10;44.90;;;;;;4115396;28;20057;-55
2021/08/17 07:00:57;;;;;;;3.88;2.40;;;22.00;44.80;;;;;;4115375;28;20415;-52
2021/08/17 07:02:59;;;;;;;3.13;1.95;;;22.00;44.90;;;;;;4115170;28;20513;-52
2021/08/17 07:05:02;;;;;;;2.45;1.80;;;22.00;45.10;;;;;;4118099;28;20683;-59
2021/08/17 07:07:19;;;;;;;2.63;1.42;;;22.00;43.80;;;;;;4131407;28;20077;-60
2021/08/17 07:09:21;;;;;;;2.05;0.90;;;21.90;41.80;;;;;;4132123;28;20477;-56
2021/08/17 07:11:23;;;;;;;2.15;1.08;;;21.80;41.00;;;;;;4131718;28;20104;-59
2021/08/17 07:13:26;;;;;;;2.35;1.20;;;21.70;40.90;;;;;;4128831;28;20038;-60
2021/08/17 07:15:28;;;;;;;1.83;0.90;;;21.60;40.80;;;;;;4133526;28;20037;-60
2021/08/17 07:17:30;;;;;;;1.20;1.08;;;21.50;40.80;;;;;;4134838;28;20038;-57
2021/08/17 07:19:32;;;;;;;1.15;1.05;;;21.50;40.70;;;;;;4133340;28;20037;-53
2021/08/17 07:21:34;;;;;;;2.50;1.15;;;21.40;41.00;;;;;;4132883;28;20565;-53
2021/08/17 07:23:36;;;;;;;1.77;1.20;;;21.40;41.30;;;;;;4134876;28;20107;-53
2021/08/17 07:25:39;;;;;;;7.38;1.25;;;21.40;41.70;;;;;;4149978;28;20017;-55
2021/08/17 07:27:41;;;;;;;2.45;1.15;;;21.40;42.20;;;;;;4148608;28;20039;-52
2021/08/17 07:29:44;;;;;;;1.30;1.10;;;21.40;42.50;;;;;;4143862;28;20025;-55
2021/08/17 07:31:46;;;;;;;3.67;1.20;;;21.30;42.80;;;;;;4138855;28;20322;-52
2021/08/17 07:33:48;;;;;;;1.48;1.05;;;21.30;43.00;;;;;;4139081;28;20034;-52
2021/08/17 07:35:50;;;;;;;1.85;1.23;;;21.30;43.20;;;;;;4140922;28;20072;-54
2021/08/17 07:37:54;;;;;;;1.88;1.15;;;21.30;43.40;;;;;;4130905;28;20590;-58
2021/08/17 07:39:56;;;;;;;2.70;1.48;;;21.30;43.50;;;;;;4132232;28;20479;-55
2021/08/17 07:41:58;;;;;;;2.33;1.17;;;21.30;43.70;;;;;;4132201;28;20043;-55
2021/08/17 07:44:01;;;;;;;1.45;0.95;;;21.30;43.60;;;;;;4132394;28;20040;-54
2021/08/17 07:46:03;;;;;;;1.67;1.10;;;21.20;42.40;;;;;;4128484;28;20299;-49
2021/08/17 07:48:05;;;;;;;1.70;1.15;;;21.10;42.00;;;;;;4132794;28;20029;-54
2021/08/17 07:50:10;;;;;;;1.65;1.30;;;21.10;41.80;;;;;;4127180;28;20036;-54
2021/08/17 07:52:12;;;;;;;1.25;1.10;;;21.10;41.60;;;;;;4128920;28;20033;-52
2021/08/17 07:54:14;;;;;;;1.95;1.30;;;21.10;41.90;;;;;;4131441;28;20736;-53
2021/08/17 07:56:17;;;;;;;0.98;0.88;;;21.40;42.50;;;;;;4132362;28;20033;-49
2021/08/17 07:58:19;;;;;;;1.42;1.10;;;21.80;42.50;;;;;;4132032;28;20037;-51
2021/08/17 08:00:21;;;;;;;7.10;1.23;;;22.20;42.30;;;;;;4128524;28;20060;-60
2021/08/17 08:02:23;;;;;;;2.97;1.20;;;22.50;41.80;;;;;;4126436;28;20522;-60
2021/08/17 08:04:25;;;;;;;1.25;1.02;;;22.90;41.40;;;;;;4129646;28;20067;-57
2021/08/17 08:06:34;;;;;;;3.45;1.23;;;23.20;41.20;;;;;;4124868;28;21720;-49
2021/08/17 08:08:37;;;;;;;1.75;1.42;;;23.50;40.60;;;;;;4114580;28;20824;-60
2021/08/17 08:10:39;;;;;;;2.60;1.50;;;23.80;40.40;;;;;;4116295;28;20052;-55
2021/08/17 08:12:41;;;;;;;2.92;1.60;;;23.70;40.10;;;;;;4116201;28;20566;-49
2021/08/17 08:14:44;;;;;;;4.18;1.63;;;23.60;40.20;;;;;;4113616;28;20057;-51
2021/08/17 08:16:46;;;;;;;;;;;23.50;40.70;;;;;;4114274;28;20030;-52
2021/08/17 08:18:48;;;;;;;2.92;1.50;;;23.30;41.00;;;;;;4116252;28;20381;-50
2021/08/17 08:20:50;;;;;;;3.33;1.83;;;23.20;41.20;;;;;;4113147;28;20042;-50
2021/08/17 08:22:52;;;;;;;3.47;1.75;;;23.10;41.60;;;;;;4114633;28;20034;-54
2021/08/17 08:24:54;;;;;;;2.38;1.73;;;23.00;41.70;;;;;;4112264;28;20030;-53
2021/08/17 08:26:57;;;;;;;2.85;1.83;;;22.90;41.90;;;;;;4114409;28;20022;-49
2021/08/17 08:28:59;;;;;;;5.60;3.08;;;;;;;;;;4113892;28;20037;-48
2021/08/17 08:31:01;;;;;;;3.53;2.83;;;22.90;42.20;;;;;;4115022;28;20037;-47
2021/08/17 08:33:03;;;;;;;3.70;2.90;;;22.70;41.90;;;;;;4116707;28;20057;-53
2021/08/17 08:35:08;;;;;;;4.70;3.30;;;22.60;42.00;;;;;;4114943;28;20153;-49
2021/08/17 08:37:10;;;;;;;4.75;3.30;;;22.50;42.00;;;;;;4113589;28;20038;-49
2021/08/17 08:39:12;;;;;;;3.90;3.50;;;22.50;42.10;;;;;;4116689;28;21364;-48
2021/08/17 08:41:17;;;;;;;5.22;3.88;;;22.40;42.10;;;;;;4112751;28;20399;-51
2021/08/17 08:43:21;;;;;;;4.70;4.20;;;22.40;42.00;;;;;;4117840;28;20648;-51
2021/08/17 08:45:23;;;;;;;4.72;4.10;;;22.30;42.00;;;;;;4114163;28;20034;-52
2021/08/17 08:47:25;;;;;;;5.45;4.70;;;22.30;42.00;;;;;;4112783;28;20454;-51
2021/08/17 08:49:29;;;;;;;5.03;4.53;;;22.20;42.10;;;;;;4110215;28;20042;-49
2021/08/17 08:51:30;;;;;;;;;;;22.10;42.00;;;;;;4115489;28;20077;-47
2021/08/17 08:53:32;;;;;;;4.65;4.25;;;22.10;42.10;;;;;;4112272;28;20013;-48
2021/08/17 08:55:34;;;;;;;6.45;4.38;;;22.00;42.00;;;;;;4111638;28;20074;-45
2021/08/17 08:57:37;;;;;;;4.53;3.83;;;22.00;42.20;;;;;;4111261;28;20032;-47
2021/08/17 08:59:41;;;;;;;4.32;3.92;;;22.00;41.90;;;;;;4114422;28;20042;-47
2021/08/17 09:01:49;;;;;;;5.78;4.13;;;21.90;42.10;;;;;;4110727;28;20429;-46
2021/08/17 09:03:54;;;;;;;4.72;4.20;;;21.90;42.10;;;;;;4117146;28;20331;-49
2021/08/17 09:05:56;;;;;;;4.93;4.20;;;21.80;42.10;;;;;;4113771;28;20038;-45
2021/08/17 09:08:04;;;;;;;4.72;3.97;;;21.80;42.00;;;;;;4129657;28;20128;-45
2021/08/17 09:10:14;;;;;;;6.10;3.90;;;21.70;42.00;;;;;;4131386;28;20021;-45
2021/08/17 09:12:18;;;;;;;5.25;4.10;;;21.70;42.20;;;;;;4131153;28;20631;-46
2021/08/17 09:14:34;;;;;;;4.25;3.85;;;21.70;42.00;;;;;;4128578;28;20052;-47
2021/08/17 09:16:36;;;;;;;4.20;3.80;;;21.60;42.40;;;;;;4124666;28;20042;-48
2021/08/17 09:18:39;;;;;;;4.22;3.72;;;21.60;42.20;;;;;;4132175;28;20025;-51
2021/08/17 09:20:43;;;;;;;5.13;3.88;;;21.60;42.70;;;;;;4133580;28;20594;-52
2021/08/17 09:22:45;;;;;;;3.75;3.20;;;21.50;42.90;;;;;;4130021;28;20044;-47
2021/08/17 09:24:53;;;;;;;4.35;3.85;;;21.50;43.20;;;;;;4132289;28;20037;-49
2021/08/17 09:26:58;;;;;;;4.18;3.65;;;21.50;43.50;;;;;;4131495;28;20033;-47
2021/08/17 09:29:02;;;;;;;4.35;3.10;;;21.50;43.60;;;;;;4134470;28;20025;-47
2021/08/17 09:31:25;;;;;;;3.95;3.25;;;21.50;43.80;;;;;;4134431;28;20700;-51
2021/08/17 09:33:45;;;;;;;4.97;3.17;;;21.40;43.80;;;;;;4131890;28;20121;-46
2021/08/17 09:35:56;;;;;;;3.60;3.03;;;21.40;44.00;;;;;;4128997;28;20299;-51
2021/08/17 09:38:10;;;;;;;6.57;3.05;;;21.40;44.10;;;;;;4126301;28;20034;-47
2021/08/17 09:40:23;;;;;;;3.92;2.85;;;21.40;44.30;;;;;;4127568;28;20056;-47
2021/08/17 09:42:34;;;;;;;3.90;3.05;;;21.40;44.30;;;;;;4127418;28;20065;-53
2021/08/17 09:44:36;;;;;;;4.80;3.10;;;21.40;44.40;;;;;;4128792;28;20120;-53
2021/08/17 09:46:45;;;;;;;3.47;2.67;;;21.40;44.50;;;;;;4126837;28;20022;-53
2021/08/17 09:48:48;;;;;;;3.40;2.80;;;21.40;44.70;;;;;;4127563;28;20538;-50
2021/08/17 09:50:50;;;;;;;3.67;2.85;;;21.40;44.80;;;;;;4126116;28;20061;-50
2021/08/17 09:53:27;;;;;;;4.35;2.80;;;21.30;44.70;;;;;;4127414;28;20128;-49
2021/08/17 09:55:39;;;;;;;5.43;3.20;;;21.40;44.80;;;;;;4128878;28;20045;-52
2021/08/17 09:57:41;;;;;;;4.45;2.70;;;21.40;44.90;;;;;;4127575;28;20030;-49
2021/08/17 09:59:45;;;;;;;3.75;2.83;;;21.30;44.90;;;;;;4131137;28;20057;-47
2021/08/17 10:01:55;;;;;;;3.30;2.78;;;21.30;44.90;;;;;;4127614;28;20708;-53
2021/08/17 10:03:59;;;;;;;3.38;2.80;;;21.30;45.00;;;;;;4129392;28;20044;-53
2021/08/17 10:06:02;;;;;;;3.40;2.55;;;21.30;45.00;;;;;;4125376;28;20470;-51
2021/08/17 10:08:06;;;;;;;4.10;3.13;;;21.30;45.10;;;;;;4111569;28;20120;-55
2021/08/17 10:10:09;;;;;;;3.50;2.75;;;21.30;45.00;;;;;;4110728;28;20038;-52
2021/08/17 10:12:12;;;;;;;3.42;2.70;;;21.20;45.00;;;;;;4112291;28;20334;-51
2021/08/17 10:14:15;;;;;;;3.55;2.60;;;21.30;45.20;;;;;;4109173;28;20049;-50
2021/08/17 10:16:20;;;;;;;3.28;2.42;;;21.30;45.20;;;;;;4109353;28;20591;-48
2021/08/17 10:18:28;;;;;;;3.20;2.72;;;21.20;45.20;;;;;;4107843;28;20078;-54
2021/08/17 10:20:32;;;;;;;2.97;2.65;;;21.20;45.30;;;;;;4111117;28;20037;-53
2021/08/17 10:22:38;;;;;;;3.40;2.63;;;21.20;46.00;;;;;;4112731;28;20553;-51
2021/08/17 10:24:42;;;;;;;3.20;2.30;;;21.20;45.40;;;;;;4111559;28;20033;-48
2021/08/17 10:26:44;;;;;;;3.05;2.30;;;21.20;45.40;;;;;;4106312;28;20038;-53
2021/08/17 10:28:46;;;;;;;3.28;2.58;;;21.20;45.40;;;;;;4106753;28;20042;-51
2021/08/17 10:30:48;;;;;;;2.50;2.00;;;21.20;45.50;;;;;;4114275;28;20708;-48
2021/08/17 10:33:00;;;;;;;3.22;2.40;;;21.10;45.40;;;;;;4112976;28;20026;-48
2021/08/17 10:35:03;;;;;;;2.63;2.20;;;21.20;45.50;;;;;;4112717;28;20376;-53
2021/08/17 10:37:22;;;;;;;3.80;2.28;;;21.10;45.50;;;;;;4109684;28;20026;-54
2021/08/17 10:39:25;;;;;;;3.55;2.40;;;21.10;45.60;;;;;;4108564;28;20042;-47
2021/08/17 10:41:30;;;;;;;2.83;2.28;;;21.10;45.70;;;;;;4106201;28;20644;-52
2021/08/17 10:43:32;;;;;;;3.35;2.35;;;21.10;45.70;;;;;;4110063;28;20088;-52
2021/08/17 10:45:37;;;;;;;3.10;2.20;;;21.10;45.70;;;;;;4107463;28;20144;-54
2021/08/17 10:47:39;;;;;;;4.20;2.40;;;21.10;45.80;;;;;;4107562;28;20026;-51